sensor_id;sensor_type;location;lat;lon;timestamp;P1;durP1;ratioP1;P2;durP2;ratioP2
57085;SDS011;42964;42.910;23.792;2022-07-31T00:01:37;16.25;;;10.23;;
57085;SDS011;42964;42.910;23.792;2022-07-31T00:06:36;13.50;;;10.95;;
57085;SDS011;42964;42.910;23.792;2022-07-31T00:11:36;15.90;;;12.45;;
57085;SDS011;42964;42.910;23.792;2022-07-31T00:16:35;17.90;;;13.00;;
57085;SDS011;42964;42.910;23.792;2022-07-31T00:21:34;15.90;;;13.40;;
57085;SDS011;42964;42.910;23.792;2022-07-31T00:26:33;18.83;;;13.73;;
57085;SDS011;42964;42.910;23.792;2022-07-31T00:31:32;19.52;;;13.38;;
57085;SDS011;42964;42.910;23.792;2022-07-31T00:36:31;17.35;;;13.48;;
57085;SDS011;42964;42.910;23.792;2022-07-31T00:41:37;14.35;;;10.70;;
57085;SDS011;42964;42.910;23.792;2022-07-31T00:46:40;14.75;;;10.75;;
57085;SDS011;42964;42.910;23.792;2022-07-31T00:51:40;19.88;;;14.18;;
57085;SDS011;42964;42.910;23.792;2022-07-31T00:56:39;18.60;;;13.63;;
57085;SDS011;42964;42.910;23.792;2022-07-31T01:01:38;16.05;;;12.70;;
57085;SDS011;42964;42.910;23.792;2022-07-31T01:06:37;12.38;;;8.43;;
57085;SDS011;42964;42.910;23.792;2022-07-31T01:16:43;10.13;;;6.90;;
57085;SDS011;42964;42.910;23.792;2022-07-31T01:21:53;11.18;;;7.00;;
57085;SDS011;42964;42.910;23.792;2022-07-31T01:27:02;10.32;;;7.70;;
57085;SDS011;42964;42.910;23.792;2022-07-31T01:32:08;13.20;;;8.65;;
57085;SDS011;42964;42.910;23.792;2022-07-31T01:37:13;13.38;;;9.30;;
57085;SDS011;42964;42.910;23.792;2022-07-31T01:42:18;11.55;;;9.25;;
57085;SDS011;42964;42.910;23.792;2022-07-31T01:47:21;11.52;;;9.00;;
57085;SDS011;42964;42.910;23.792;2022-07-31T01:52:21;12.88;;;7.85;;
57085;SDS011;42964;42.910;23.792;2022-07-31T01:57:23;12.40;;;7.22;;
57085;SDS011;42964;42.910;23.792;2022-07-31T02:02:23;15.38;;;8.68;;
57085;SDS011;42964;42.910;23.792;2022-07-31T02:07:24;15.63;;;10.13;;
57085;SDS011;42964;42.910;23.792;2022-07-31T02:12:25;15.98;;;10.10;;
57085;SDS011;42964;42.910;23.792;2022-07-31T02:17:25;17.30;;;10.68;;
57085;SDS011;42964;42.910;23.792;2022-07-31T02:22:25;16.65;;;10.50;;
57085;SDS011;42964;42.910;23.792;2022-07-31T02:37:24;19.48;;;10.50;;
57085;SDS011;42964;42.910;23.792;2022-07-31T02:42:24;16.60;;;10.35;;
57085;SDS011;42964;42.910;23.792;2022-07-31T02:47:25;16.23;;;11.45;;
57085;SDS011;42964;42.910;23.792;2022-07-31T02:52:24;19.17;;;12.68;;
57085;SDS011;42964;42.910;23.792;2022-07-31T02:57:24;19.17;;;12.60;;
57085;SDS011;42964;42.910;23.792;2022-07-31T03:02:23;25.00;;;13.85;;
57085;SDS011;42964;42.910;23.792;2022-07-31T03:07:22;21.27;;;14.30;;
57085;SDS011;42964;42.910;23.792;2022-07-31T03:12:21;24.45;;;15.02;;
57085;SDS011;42964;42.910;23.792;2022-07-31T03:17:22;24.08;;;14.90;;
57085;SDS011;42964;42.910;23.792;2022-07-31T03:22:22;22.85;;;14.02;;
57085;SDS011;42964;42.910;23.792;2022-07-31T03:27:21;22.33;;;14.38;;
57085;SDS011;42964;42.910;23.792;2022-07-31T03:32:20;24.17;;;14.32;;
57085;SDS011;42964;42.910;23.792;2022-07-31T03:37:26;25.27;;;15.30;;
57085;SDS011;42964;42.910;23.792;2022-07-31T03:42:25;24.65;;;15.23;;
57085;SDS011;42964;42.910;23.792;2022-07-31T03:47:25;32.05;;;13.82;;
57085;SDS011;42964;42.910;23.792;2022-07-31T03:57:25;23.00;;;14.52;;
57085;SDS011;42964;42.910;23.792;2022-07-31T04:02:26;25.85;;;14.93;;
57085;SDS011;42964;42.910;23.792;2022-07-31T04:07:26;22.15;;;14.75;;
57085;SDS011;42964;42.910;23.792;2022-07-31T04:12:25;21.83;;;14.60;;
57085;SDS011;42964;42.910;23.792;2022-07-31T04:17:24;23.08;;;13.93;;
57085;SDS011;42964;42.910;23.792;2022-07-31T04:27:22;25.07;;;14.03;;
57085;SDS011;42964;42.910;23.792;2022-07-31T04:42:20;25.13;;;18.00;;
57085;SDS011;42964;42.910;23.792;2022-07-31T04:52:17;24.60;;;19.70;;
57085;SDS011;42964;42.910;23.792;2022-07-31T04:57:16;16.63;;;12.18;;
57085;SDS011;42964;42.910;23.792;2022-07-31T05:02:15;21.02;;;12.07;;
57085;SDS011;42964;42.910;23.792;2022-07-31T05:07:14;17.25;;;12.10;;
57085;SDS011;42964;42.910;23.792;2022-07-31T05:12:13;17.58;;;11.13;;
57085;SDS011;42964;42.910;23.792;2022-07-31T05:17:12;14.88;;;11.60;;
57085;SDS011;42964;42.910;23.792;2022-07-31T05:22:11;15.70;;;10.93;;
57085;SDS011;42964;42.910;23.792;2022-07-31T05:27:10;14.73;;;10.15;;
57085;SDS011;42964;42.910;23.792;2022-07-31T05:32:09;15.73;;;10.18;;
57085;SDS011;42964;42.910;23.792;2022-07-31T05:37:08;13.52;;;10.15;;
57085;SDS011;42964;42.910;23.792;2022-07-31T05:42:07;16.30;;;11.00;;
57085;SDS011;42964;42.910;23.792;2022-07-31T05:47:06;14.50;;;11.73;;
57085;SDS011;42964;42.910;23.792;2022-07-31T05:52:06;15.07;;;11.10;;
57085;SDS011;42964;42.910;23.792;2022-07-31T05:57:05;15.50;;;10.32;;
57085;SDS011;42964;42.910;23.792;2022-07-31T06:02:04;13.70;;;9.55;;
57085;SDS011;42964;42.910;23.792;2022-07-31T06:07:02;11.32;;;8.60;;
57085;SDS011;42964;42.910;23.792;2022-07-31T06:12:01;12.63;;;8.65;;
57085;SDS011;42964;42.910;23.792;2022-07-31T06:17:04;13.32;;;8.23;;
57085;SDS011;42964;42.910;23.792;2022-07-31T06:22:04;14.18;;;8.80;;
57085;SDS011;42964;42.910;23.792;2022-07-31T06:27:03;9.40;;;7.75;;
57085;SDS011;42964;42.910;23.792;2022-07-31T06:32:03;12.50;;;8.48;;
57085;SDS011;42964;42.910;23.792;2022-07-31T06:37:03;11.43;;;7.93;;
57085;SDS011;42964;42.910;23.792;2022-07-31T06:42:02;9.77;;;6.70;;
57085;SDS011;42964;42.910;23.792;2022-07-31T06:47:01;12.45;;;7.53;;
57085;SDS011;42964;42.910;23.792;2022-07-31T06:52:00;12.50;;;7.53;;
57085;SDS011;42964;42.910;23.792;2022-07-31T06:56:59;7.95;;;5.82;;
57085;SDS011;42964;42.910;23.792;2022-07-31T07:01:58;7.07;;;6.15;;
57085;SDS011;42964;42.910;23.792;2022-07-31T07:06:57;9.38;;;6.40;;
57085;SDS011;42964;42.910;23.792;2022-07-31T07:11:56;9.38;;;6.50;;
57085;SDS011;42964;42.910;23.792;2022-07-31T07:16:55;8.63;;;6.10;;
57085;SDS011;42964;42.910;23.792;2022-07-31T07:21:54;7.50;;;5.93;;
57085;SDS011;42964;42.910;23.792;2022-07-31T07:26:53;8.98;;;6.53;;
57085;SDS011;42964;42.910;23.792;2022-07-31T07:31:52;7.30;;;5.90;;
57085;SDS011;42964;42.910;23.792;2022-07-31T07:36:51;7.85;;;6.40;;
57085;SDS011;42964;42.910;23.792;2022-07-31T07:41:50;8.15;;;6.47;;
57085;SDS011;42964;42.910;23.792;2022-07-31T07:46:49;7.82;;;6.20;;
57085;SDS011;42964;42.910;23.792;2022-07-31T07:51:48;8.63;;;6.18;;
57085;SDS011;42964;42.910;23.792;2022-07-31T07:56:47;7.32;;;6.28;;
57085;SDS011;42964;42.910;23.792;2022-07-31T08:01:46;10.18;;;8.30;;
57085;SDS011;42964;42.910;23.792;2022-07-31T08:06:45;11.40;;;9.27;;
57085;SDS011;42964;42.910;23.792;2022-07-31T08:11:44;11.80;;;10.18;;
57085;SDS011;42964;42.910;23.792;2022-07-31T08:16:43;13.45;;;10.32;;
57085;SDS011;42964;42.910;23.792;2022-07-31T08:21:42;14.13;;;10.23;;
57085;SDS011;42964;42.910;23.792;2022-07-31T08:26:41;12.27;;;10.82;;
57085;SDS011;42964;42.910;23.792;2022-07-31T08:31:59;11.93;;;10.73;;
57085;SDS011;42964;42.910;23.792;2022-07-31T08:36:58;11.73;;;10.52;;
57085;SDS011;42964;42.910;23.792;2022-07-31T08:41:58;15.23;;;10.65;;
57085;SDS011;42964;42.910;23.792;2022-07-31T08:46:57;10.82;;;9.60;;
57085;SDS011;42964;42.910;23.792;2022-07-31T08:51:57;12.07;;;10.10;;
57085;SDS011;42964;42.910;23.792;2022-07-31T08:56:59;13.27;;;10.32;;
57085;SDS011;42964;42.910;23.792;2022-07-31T09:01:58;13.20;;;10.27;;
57085;SDS011;42964;42.910;23.792;2022-07-31T09:06:57;14.98;;;11.82;;
57085;SDS011;42964;42.910;23.792;2022-07-31T09:11:58;11.45;;;9.80;;
57085;SDS011;42964;42.910;23.792;2022-07-31T09:16:57;12.88;;;10.45;;
57085;SDS011;42964;42.910;23.792;2022-07-31T09:21:56;11.75;;;10.52;;
57085;SDS011;42964;42.910;23.792;2022-07-31T09:27:03;11.02;;;9.63;;
57085;SDS011;42964;42.910;23.792;2022-07-31T09:32:07;10.98;;;9.85;;
57085;SDS011;42964;42.910;23.792;2022-07-31T09:42:12;11.38;;;10.18;;
57085;SDS011;42964;42.910;23.792;2022-07-31T09:47:18;10.18;;;8.98;;
57085;SDS011;42964;42.910;23.792;2022-07-31T09:52:21;10.52;;;8.98;;
57085;SDS011;42964;42.910;23.792;2022-07-31T09:57:20;11.30;;;10.05;;
57085;SDS011;42964;42.910;23.792;2022-07-31T10:02:19;9.75;;;8.75;;
57085;SDS011;42964;42.910;23.792;2022-07-31T10:07:19;10.55;;;9.23;;
57085;SDS011;42964;42.910;23.792;2022-07-31T10:12:24;11.18;;;9.25;;
57085;SDS011;42964;42.910;23.792;2022-07-31T10:17:28;10.52;;;9.45;;
57085;SDS011;42964;42.910;23.792;2022-07-31T10:22:30;11.02;;;9.18;;
57085;SDS011;42964;42.910;23.792;2022-07-31T10:27:32;9.88;;;8.88;;
57085;SDS011;42964;42.910;23.792;2022-07-31T10:32:33;11.48;;;9.68;;
57085;SDS011;42964;42.910;23.792;2022-07-31T10:37:38;11.25;;;10.15;;
57085;SDS011;42964;42.910;23.792;2022-07-31T10:42:45;10.90;;;9.90;;
57085;SDS011;42964;42.910;23.792;2022-07-31T10:53:06;11.57;;;10.40;;
57085;SDS011;42964;42.910;23.792;2022-07-31T10:58:10;11.90;;;9.77;;
57085;SDS011;42964;42.910;23.792;2022-07-31T11:03:14;11.07;;;9.98;;
57085;SDS011;42964;42.910;23.792;2022-07-31T11:08:14;10.48;;;8.70;;
57085;SDS011;42964;42.910;23.792;2022-07-31T11:13:13;10.95;;;9.23;;
57085;SDS011;42964;42.910;23.792;2022-07-31T11:18:19;11.45;;;9.30;;
57085;SDS011;42964;42.910;23.792;2022-07-31T11:23:26;11.63;;;10.43;;
57085;SDS011;42964;42.910;23.792;2022-07-31T11:28:27;11.98;;;10.75;;
57085;SDS011;42964;42.910;23.792;2022-07-31T11:38:37;10.50;;;8.85;;
57085;SDS011;42964;42.910;23.792;2022-07-31T11:43:42;11.65;;;9.70;;
57085;SDS011;42964;42.910;23.792;2022-07-31T11:48:42;8.90;;;7.75;;
57085;SDS011;42964;42.910;23.792;2022-07-31T11:53:41;11.25;;;10.07;;
57085;SDS011;42964;42.910;23.792;2022-07-31T11:58:45;12.43;;;10.20;;
57085;SDS011;42964;42.910;23.792;2022-07-31T12:03:48;11.63;;;10.43;;
57085;SDS011;42964;42.910;23.792;2022-07-31T12:08:48;11.60;;;9.27;;
57085;SDS011;42964;42.910;23.792;2022-07-31T12:13:48;11.88;;;9.40;;
57085;SDS011;42964;42.910;23.792;2022-07-31T12:18:54;12.23;;;9.65;;
57085;SDS011;42964;42.910;23.792;2022-07-31T12:23:56;13.10;;;10.43;;
57085;SDS011;42964;42.910;23.792;2022-07-31T12:28:59;11.52;;;9.57;;
57085;SDS011;42964;42.910;23.792;2022-07-31T12:34:06;11.48;;;9.00;;
57085;SDS011;42964;42.910;23.792;2022-07-31T12:39:05;10.75;;;8.98;;
57085;SDS011;42964;42.910;23.792;2022-07-31T12:44:10;9.80;;;8.68;;
57085;SDS011;42964;42.910;23.792;2022-07-31T12:49:10;10.43;;;8.93;;
57085;SDS011;42964;42.910;23.792;2022-07-31T12:54:09;13.05;;;9.23;;
57085;SDS011;42964;42.910;23.792;2022-07-31T12:59:08;11.73;;;10.00;;
57085;SDS011;42964;42.910;23.792;2022-07-31T13:04:07;10.82;;;9.73;;
57085;SDS011;42964;42.910;23.792;2022-07-31T13:09:07;11.73;;;10.32;;
57085;SDS011;42964;42.910;23.792;2022-07-31T13:14:06;11.30;;;9.50;;
57085;SDS011;42964;42.910;23.792;2022-07-31T13:19:05;12.05;;;10.85;;
57085;SDS011;42964;42.910;23.792;2022-07-31T13:24:05;9.93;;;8.93;;
57085;SDS011;42964;42.910;23.792;2022-07-31T13:29:06;9.75;;;8.05;;
57085;SDS011;42964;42.910;23.792;2022-07-31T13:34:05;8.15;;;7.32;;
57085;SDS011;42964;42.910;23.792;2022-07-31T13:39:05;9.13;;;8.20;;
57085;SDS011;42964;42.910;23.792;2022-07-31T13:44:05;8.48;;;7.57;;
57085;SDS011;42964;42.910;23.792;2022-07-31T13:49:04;10.27;;;8.35;;
57085;SDS011;42964;42.910;23.792;2022-07-31T13:54:07;8.40;;;7.50;;
57085;SDS011;42964;42.910;23.792;2022-07-31T13:59:06;9.63;;;7.72;;
57085;SDS011;42964;42.910;23.792;2022-07-31T14:04:05;8.27;;;7.35;;
57085;SDS011;42964;42.910;23.792;2022-07-31T14:09:04;8.65;;;7.20;;
57085;SDS011;42964;42.910;23.792;2022-07-31T14:14:03;8.07;;;7.28;;
57085;SDS011;42964;42.910;23.792;2022-07-31T14:19:02;8.68;;;7.72;;
57085;SDS011;42964;42.910;23.792;2022-07-31T14:24:02;8.57;;;7.18;;
57085;SDS011;42964;42.910;23.792;2022-07-31T14:29:01;8.63;;;7.72;;
57085;SDS011;42964;42.910;23.792;2022-07-31T14:34:00;7.85;;;7.05;;
57085;SDS011;42964;42.910;23.792;2022-07-31T14:38:58;10.30;;;7.93;;
57085;SDS011;42964;42.910;23.792;2022-07-31T14:43:57;8.07;;;7.28;;
57085;SDS011;42964;42.910;23.792;2022-07-31T14:48:56;8.07;;;7.15;;
57085;SDS011;42964;42.910;23.792;2022-07-31T14:53:57;8.00;;;6.85;;
57085;SDS011;42964;42.910;23.792;2022-07-31T14:58:57;7.63;;;6.82;;
57085;SDS011;42964;42.910;23.792;2022-07-31T15:03:56;7.53;;;6.72;;
57085;SDS011;42964;42.910;23.792;2022-07-31T15:08:55;8.13;;;7.25;;
57085;SDS011;42964;42.910;23.792;2022-07-31T15:13:54;7.50;;;6.38;;
57085;SDS011;42964;42.910;23.792;2022-07-31T15:18:53;6.80;;;5.80;;
57085;SDS011;42964;42.910;23.792;2022-07-31T15:23:52;8.40;;;6.05;;
57085;SDS011;42964;42.910;23.792;2022-07-31T15:28:51;6.65;;;5.95;;
57085;SDS011;42964;42.910;23.792;2022-07-31T15:33:50;7.55;;;6.25;;
57085;SDS011;42964;42.910;23.792;2022-07-31T15:38:49;6.68;;;5.97;;
57085;SDS011;42964;42.910;23.792;2022-07-31T15:43:48;8.43;;;6.40;;
57085;SDS011;42964;42.910;23.792;2022-07-31T15:48:47;7.47;;;6.65;;
57085;SDS011;42964;42.910;23.792;2022-07-31T15:53:46;7.70;;;6.90;;
57085;SDS011;42964;42.910;23.792;2022-07-31T15:58:45;8.45;;;7.15;;
57085;SDS011;42964;42.910;23.792;2022-07-31T16:03:44;7.07;;;6.38;;
57085;SDS011;42964;42.910;23.792;2022-07-31T16:08:43;8.18;;;6.90;;
57085;SDS011;42964;42.910;23.792;2022-07-31T16:13:42;9.93;;;7.40;;
57085;SDS011;42964;42.910;23.792;2022-07-31T16:18:41;8.57;;;6.80;;
57085;SDS011;42964;42.910;23.792;2022-07-31T16:23:40;9.57;;;7.35;;
57085;SDS011;42964;42.910;23.792;2022-07-31T16:28:38;9.80;;;7.13;;
57085;SDS011;42964;42.910;23.792;2022-07-31T16:33:38;8.55;;;6.60;;
57085;SDS011;42964;42.910;23.792;2022-07-31T16:38:37;7.82;;;6.82;;
57085;SDS011;42964;42.910;23.792;2022-07-31T16:43:36;7.25;;;6.28;;
57085;SDS011;42964;42.910;23.792;2022-07-31T16:48:36;7.55;;;6.35;;
57085;SDS011;42964;42.910;23.792;2022-07-31T16:53:35;8.75;;;6.43;;
57085;SDS011;42964;42.910;23.792;2022-07-31T16:58:34;8.23;;;6.55;;
57085;SDS011;42964;42.910;23.792;2022-07-31T17:03:32;8.13;;;5.95;;
57085;SDS011;42964;42.910;23.792;2022-07-31T17:08:31;9.98;;;7.13;;
57085;SDS011;42964;42.910;23.792;2022-07-31T17:13:30;7.22;;;6.22;;
57085;SDS011;42964;42.910;23.792;2022-07-31T17:18:30;7.82;;;7.03;;
57085;SDS011;42964;42.910;23.792;2022-07-31T17:23:29;9.15;;;7.43;;
57085;SDS011;42964;42.910;23.792;2022-07-31T17:28:29;10.60;;;7.78;;
57085;SDS011;42964;42.910;23.792;2022-07-31T17:33:28;9.77;;;8.05;;
57085;SDS011;42964;42.910;23.792;2022-07-31T17:38:27;11.45;;;8.27;;
57085;SDS011;42964;42.910;23.792;2022-07-31T17:43:26;9.15;;;7.70;;
57085;SDS011;42964;42.910;23.792;2022-07-31T17:48:26;12.23;;;8.35;;
57085;SDS011;42964;42.910;23.792;2022-07-31T17:53:25;9.70;;;7.68;;
57085;SDS011;42964;42.910;23.792;2022-07-31T17:58:24;10.00;;;8.00;;
57085;SDS011;42964;42.910;23.792;2022-07-31T18:03:23;10.38;;;7.72;;
57085;SDS011;42964;42.910;23.792;2022-07-31T18:08:22;9.00;;;8.10;;
57085;SDS011;42964;42.910;23.792;2022-07-31T18:13:21;10.35;;;8.63;;
57085;SDS011;42964;42.910;23.792;2022-07-31T18:18:20;10.88;;;9.07;;
57085;SDS011;42964;42.910;23.792;2022-07-31T18:23:19;11.52;;;8.88;;
57085;SDS011;42964;42.910;23.792;2022-07-31T18:28:20;11.60;;;9.20;;
57085;SDS011;42964;42.910;23.792;2022-07-31T18:33:19;12.30;;;9.43;;
57085;SDS011;42964;42.910;23.792;2022-07-31T18:38:19;12.52;;;8.95;;
57085;SDS011;42964;42.910;23.792;2022-07-31T18:43:18;9.20;;;8.02;;
57085;SDS011;42964;42.910;23.792;2022-07-31T18:48:17;9.00;;;7.97;;
57085;SDS011;42964;42.910;23.792;2022-07-31T18:53:17;10.88;;;8.52;;
57085;SDS011;42964;42.910;23.792;2022-07-31T18:58:16;11.55;;;9.32;;
57085;SDS011;42964;42.910;23.792;2022-07-31T19:03:15;12.90;;;10.02;;
57085;SDS011;42964;42.910;23.792;2022-07-31T19:08:16;10.85;;;9.65;;
57085;SDS011;42964;42.910;23.792;2022-07-31T19:13:14;13.77;;;10.38;;
57085;SDS011;42964;42.910;23.792;2022-07-31T19:18:14;12.60;;;10.57;;
57085;SDS011;42964;42.910;23.792;2022-07-31T19:23:13;14.38;;;10.88;;
57085;SDS011;42964;42.910;23.792;2022-07-31T19:28:12;11.82;;;9.48;;
57085;SDS011;42964;42.910;23.792;2022-07-31T19:33:11;13.07;;;10.52;;
57085;SDS011;42964;42.910;23.792;2022-07-31T19:38:10;14.05;;;10.52;;
57085;SDS011;42964;42.910;23.792;2022-07-31T19:43:09;10.73;;;9.63;;
57085;SDS011;42964;42.910;23.792;2022-07-31T19:48:09;13.40;;;10.05;;
57085;SDS011;42964;42.910;23.792;2022-07-31T19:53:08;14.13;;;10.07;;
57085;SDS011;42964;42.910;23.792;2022-07-31T19:58:07;17.33;;;10.73;;
57085;SDS011;42964;42.910;23.792;2022-07-31T20:03:06;15.50;;;11.48;;
57085;SDS011;42964;42.910;23.792;2022-07-31T20:08:05;18.15;;;11.57;;
57085;SDS011;42964;42.910;23.792;2022-07-31T20:13:04;13.15;;;10.63;;
57085;SDS011;42964;42.910;23.792;2022-07-31T20:18:03;14.57;;;11.02;;
57085;SDS011;42964;42.910;23.792;2022-07-31T20:23:02;13.00;;;11.15;;
57085;SDS011;42964;42.910;23.792;2022-07-31T20:28:01;14.57;;;10.68;;
57085;SDS011;42964;42.910;23.792;2022-07-31T20:33:00;14.45;;;10.48;;
57085;SDS011;42964;42.910;23.792;2022-07-31T20:37:59;12.93;;;10.57;;
57085;SDS011;42964;42.910;23.792;2022-07-31T20:42:58;13.77;;;10.75;;
57085;SDS011;42964;42.910;23.792;2022-07-31T20:47:57;16.17;;;11.52;;
57085;SDS011;42964;42.910;23.792;2022-07-31T20:52:56;12.02;;;10.35;;
57085;SDS011;42964;42.910;23.792;2022-07-31T20:57:55;11.10;;;9.82;;
57085;SDS011;42964;42.910;23.792;2022-07-31T21:02:54;11.45;;;9.70;;
57085;SDS011;42964;42.910;23.792;2022-07-31T21:07:53;11.88;;;10.13;;
57085;SDS011;42964;42.910;23.792;2022-07-31T21:12:54;13.98;;;12.27;;
57085;SDS011;42964;42.910;23.792;2022-07-31T21:17:53;16.38;;;13.27;;
57085;SDS011;42964;42.910;23.792;2022-07-31T21:22:55;18.98;;;13.63;;
57085;SDS011;42964;42.910;23.792;2022-07-31T21:27:59;16.83;;;13.77;;
57085;SDS011;42964;42.910;23.792;2022-07-31T21:32:58;17.88;;;13.25;;
57085;SDS011;42964;42.910;23.792;2022-07-31T21:37:57;15.65;;;12.85;;
57085;SDS011;42964;42.910;23.792;2022-07-31T21:42:56;14.68;;;12.02;;
57085;SDS011;42964;42.910;23.792;2022-07-31T21:47:56;16.08;;;11.43;;
57085;SDS011;42964;42.910;23.792;2022-07-31T21:52:58;14.73;;;12.10;;
57085;SDS011;42964;42.910;23.792;2022-07-31T21:57:57;17.40;;;13.50;;
57085;SDS011;42964;42.910;23.792;2022-07-31T22:02:56;16.52;;;12.88;;
57085;SDS011;42964;42.910;23.792;2022-07-31T22:07:55;16.13;;;13.80;;
57085;SDS011;42964;42.910;23.792;2022-07-31T22:12:54;17.77;;;13.73;;
57085;SDS011;42964;42.910;23.792;2022-07-31T22:17:53;17.63;;;13.65;;
57085;SDS011;42964;42.910;23.792;2022-07-31T22:22:52;17.33;;;13.82;;
57085;SDS011;42964;42.910;23.792;2022-07-31T22:27:51;17.40;;;14.75;;
57085;SDS011;42964;42.910;23.792;2022-07-31T22:32:51;20.48;;;13.52;;
57085;SDS011;42964;42.910;23.792;2022-07-31T22:37:51;18.83;;;14.20;;
57085;SDS011;42964;42.910;23.792;2022-07-31T22:42:50;17.95;;;13.13;;
57085;SDS011;42964;42.910;23.792;2022-07-31T22:47:49;18.27;;;14.18;;
57085;SDS011;42964;42.910;23.792;2022-07-31T22:52:49;16.05;;;13.82;;
57085;SDS011;42964;42.910;23.792;2022-07-31T22:57:48;19.25;;;14.48;;
57085;SDS011;42964;42.910;23.792;2022-07-31T23:02:46;17.15;;;14.52;;
57085;SDS011;42964;42.910;23.792;2022-07-31T23:07:46;17.52;;;15.02;;
57085;SDS011;42964;42.910;23.792;2022-07-31T23:12:44;22.33;;;15.10;;
57085;SDS011;42964;42.910;23.792;2022-07-31T23:22:42;17.13;;;14.10;;
57085;SDS011;42964;42.910;23.792;2022-07-31T23:32:40;16.63;;;13.87;;
57085;SDS011;42964;42.910;23.792;2022-07-31T23:42:37;19.08;;;15.00;;
57085;SDS011;42964;42.910;23.792;2022-07-31T23:47:37;18.40;;;16.38;;
57085;SDS011;42964;42.910;23.792;2022-07-31T23:52:36;18.33;;;15.43;;
57085;SDS011;42964;42.910;23.792;2022-07-31T23:57:35;18.45;;;16.33;;
